Altenburg, Missouri
Current Conditions -  °F | °C
As of 10:52 AM on Friday 28 Nov 2014 (Local Time) from KMDH Reporting Station
Clear Clear  
Wind Chill: 31°   Ceiling: Unl
Heat Index: 40°   Visibility: 10mi
Dew Point: 29°   Wind: 17mph
Humidity: 65%   Direction: 180°S
Pressure: 30.25"   Gusts: NA
Location:  37.63°N, 89.59°W
Report Text: KMDH 281652Z AUTO 18015KT 10SM CLR 04/M02 A3025 RMK AO2 SLP246 T00441017
Loading
Personal Weather Stations






























Interactive Weather Map New forecast layout! Learn more

10-Day Weather Forecast

Advertisements
Track Severe Weather on mobile